createdAt,value
2023-04-08T00:02:30.012Z,4.70
2023-04-08T00:06:47.319Z,4.50
2023-04-08T00:11:04.503Z,4.70
2023-04-08T00:15:21.597Z,4.40
2023-04-08T00:19:38.727Z,4.40
2023-04-08T00:23:56.008Z,4.40
2023-04-08T00:28:13.967Z,4.40
2023-04-08T00:32:31.103Z,4.50
2023-04-08T00:36:48.252Z,4.70
2023-04-08T00:41:05.424Z,4.70
2023-04-08T00:45:22.673Z,4.70
2023-04-08T00:49:40.308Z,4.60
2023-04-08T00:53:57.471Z,4.40
2023-04-08T00:58:15.122Z,4.50
2023-04-08T01:02:53.896Z,4.60
2023-04-08T01:07:32.064Z,4.70
2023-04-08T01:11:51.768Z,4.70
2023-04-08T01:16:15.756Z,4.60
2023-04-08T01:20:34.003Z,4.60
2023-04-08T01:24:59.325Z,4.50
2023-04-08T01:29:17.146Z,4.50
2023-04-08T01:33:35.516Z,4.40
2023-04-08T01:37:54.303Z,4.50
2023-04-08T01:42:12.731Z,4.40
2023-04-08T01:46:31.322Z,4.40
2023-04-08T01:50:51.211Z,4.60
2023-04-08T01:55:08.547Z,4.50
2023-04-08T01:59:31.484Z,4.70
2023-04-08T02:03:52.102Z,4.70
2023-04-08T02:08:09.389Z,4.60
2023-04-08T02:12:27.994Z,4.70
2023-04-08T02:16:53.099Z,4.70
2023-04-08T02:21:18.103Z,4.50
2023-04-08T02:25:38.407Z,4.60
2023-04-08T02:29:57.071Z,4.60
2023-04-08T02:34:16.060Z,4.70
2023-04-08T02:38:33.224Z,4.60
2023-04-08T02:42:50.482Z,4.70
2023-04-08T02:47:07.655Z,4.80
2023-04-08T02:51:24.843Z,4.80
2023-04-08T02:55:41.960Z,4.80
2023-04-08T02:59:59.008Z,4.80
2023-04-08T03:04:16.228Z,4.90
2023-04-08T03:08:33.761Z,4.80
2023-04-08T03:12:51.009Z,4.90
2023-04-08T03:17:08.397Z,4.90
2023-04-08T03:21:27.015Z,5.00
2023-04-08T03:25:44.294Z,4.70
2023-04-08T03:30:01.402Z,4.70
2023-04-08T03:34:18.856Z,4.70
2023-04-08T03:38:35.965Z,4.70
2023-04-08T03:42:53.060Z,4.70
2023-04-08T03:47:10.161Z,4.70
2023-04-08T03:51:28.519Z,4.80
2023-04-08T03:55:45.840Z,4.80
2023-04-08T04:00:03.487Z,4.70
2023-04-08T04:04:21.266Z,4.60
2023-04-08T04:08:38.815Z,4.70
2023-04-08T04:12:55.992Z,4.70
2023-04-08T04:17:13.115Z,4.70
2023-04-08T04:21:30.251Z,4.70
2023-04-08T04:25:47.376Z,4.70
2023-04-08T04:30:05.080Z,4.90
2023-04-08T04:34:22.142Z,4.70
2023-04-08T04:38:39.245Z,4.70
2023-04-08T04:42:56.419Z,4.70
2023-04-08T04:47:13.559Z,4.60
2023-04-08T04:51:33.146Z,4.60
2023-04-08T04:55:50.919Z,4.50
2023-04-08T05:00:08.900Z,4.60
2023-04-08T05:04:26.298Z,4.70
2023-04-08T05:08:43.424Z,4.70
2023-04-08T05:13:00.764Z,4.70
2023-04-08T05:17:17.916Z,4.70
2023-04-08T05:21:35.026Z,4.80
2023-04-08T05:25:52.223Z,4.80
2023-04-08T05:30:09.888Z,4.90
2023-04-08T05:34:27.035Z,4.90
2023-04-08T05:38:44.379Z,4.80
2023-04-08T05:43:01.762Z,4.70
2023-04-08T05:47:18.944Z,4.50
2023-04-08T05:51:36.085Z,4.60
2023-04-08T05:55:53.232Z,4.80
2023-04-08T06:00:11.315Z,4.70
2023-04-08T06:04:28.822Z,4.80
2023-04-08T06:08:45.990Z,4.80
2023-04-08T06:13:03.107Z,4.70
2023-04-08T06:17:20.341Z,4.70
2023-04-08T06:21:37.547Z,4.70
2023-04-08T06:25:54.677Z,4.70
2023-04-08T06:30:11.984Z,4.70
2023-04-08T06:34:29.083Z,4.80
2023-04-08T06:38:46.242Z,4.70
2023-04-08T06:43:03.364Z,4.80
2023-04-08T06:47:20.613Z,4.80
2023-04-08T06:51:37.760Z,4.80
2023-04-08T06:55:55.277Z,4.90
2023-04-08T07:00:12.826Z,4.90
2023-04-08T07:04:29.949Z,4.90
2023-04-08T07:08:47.065Z,4.90
2023-04-08T07:13:04.273Z,4.90
2023-04-08T07:17:21.993Z,5.00
2023-04-08T07:21:39.198Z,5.10
2023-04-08T07:25:56.627Z,5.20
2023-04-08T07:30:13.833Z,5.20
2023-04-08T07:34:31.120Z,5.00
2023-04-08T07:38:48.435Z,5.20
2023-04-08T07:43:05.895Z,5.20
2023-04-08T07:47:23.218Z,5.20
2023-04-08T07:51:40.543Z,5.30
2023-04-08T07:55:57.855Z,5.40
2023-04-08T08:00:20.850Z,5.40
2023-04-08T08:04:38.188Z,5.60
2023-04-08T08:08:56.012Z,5.30
2023-04-08T08:13:17.000Z,5.20
2023-04-08T08:17:34.230Z,5.30
2023-04-08T08:21:52.248Z,5.40
2023-04-08T08:26:10.520Z,5.60
2023-04-08T08:30:27.764Z,5.50
2023-04-08T08:34:44.983Z,5.70
2023-04-08T08:39:02.374Z,5.70
2023-04-08T08:43:20.329Z,5.80
2023-04-08T08:47:37.591Z,5.80
2023-04-08T08:51:55.614Z,5.60
2023-04-08T08:56:18.239Z,5.60
2023-04-08T09:00:37.331Z,5.70
2023-04-08T09:05:03.174Z,5.90
2023-04-08T09:09:20.566Z,5.90
2023-04-08T09:13:37.722Z,6.00
2023-04-08T09:17:54.862Z,6.10
2023-04-08T09:22:12.108Z,6.30
2023-04-08T09:26:29.220Z,6.50
2023-04-08T09:30:46.924Z,6.70
2023-04-08T09:35:05.937Z,6.90
2023-04-08T09:39:24.273Z,7.30
2023-04-08T09:43:49.239Z,7.50
2023-04-08T09:48:06.834Z,7.40
2023-04-08T09:52:37.241Z,7.70
2023-04-08T09:57:01.025Z,7.70
2023-04-08T10:01:26.766Z,7.40
2023-04-08T10:05:44.271Z,7.30
2023-04-08T10:10:02.088Z,7.50
2023-04-08T10:14:21.610Z,7.60
2023-04-08T10:18:39.215Z,7.70
2023-04-08T10:22:56.366Z,7.30
2023-04-08T10:27:41.275Z,7.10
2023-04-08T10:31:58.563Z,7.20
2023-04-08T10:36:18.826Z,7.60
2023-04-08T10:40:39.020Z,7.60
2023-04-08T10:45:00.289Z,7.90
2023-04-08T10:49:18.571Z,8.30
2023-04-08T10:53:39.991Z,8.20
2023-04-08T10:58:09.084Z,8.20
2023-04-08T11:02:33.583Z,8.10
2023-04-08T11:06:51.463Z,7.70
2023-04-08T11:11:09.383Z,7.70
2023-04-08T11:15:28.771Z,7.80
2023-04-08T11:19:46.890Z,7.80
2023-04-08T11:24:09.947Z,8.00
2023-04-08T11:28:27.406Z,8.20
2023-04-08T11:32:44.849Z,8.40
2023-04-08T11:37:02.572Z,9.50
2023-04-08T11:41:21.763Z,10.40
2023-04-08T11:45:40.999Z,10.60
2023-04-08T11:49:58.477Z,10.00
2023-04-08T11:54:27.582Z,10.90
2023-04-08T11:58:44.855Z,11.30
2023-04-08T12:03:02.026Z,11.40
2023-04-08T12:07:19.147Z,10.70
2023-04-08T12:11:36.300Z,9.90
2023-04-08T12:15:53.419Z,9.60
2023-04-08T12:20:11.998Z,9.60
2023-04-08T12:24:29.088Z,9.40
2023-04-08T12:28:46.676Z,9.20
2023-04-08T12:33:04.097Z,9.20
2023-04-08T12:37:21.704Z,9.20
2023-04-08T12:41:38.802Z,9.30
2023-04-08T12:45:56.531Z,9.40
2023-04-08T12:50:15.222Z,9.10
2023-04-08T12:54:32.498Z,9.40
2023-04-08T12:58:49.702Z,9.30
2023-04-08T13:03:07.223Z,9.20
2023-04-08T13:07:24.392Z,9.30
2023-04-08T13:11:41.724Z,9.40
2023-04-08T13:15:58.959Z,9.40
2023-04-08T13:20:16.339Z,9.40
2023-04-08T13:24:33.666Z,9.50
2023-04-08T13:28:57.092Z,9.40
2023-04-08T13:33:15.092Z,9.50
2023-04-08T13:37:32.218Z,9.40
2023-04-08T13:41:49.327Z,9.40
2023-04-08T13:46:06.895Z,9.20
2023-04-08T13:50:24.070Z,9.00
2023-04-08T13:54:41.277Z,8.90
2023-04-08T13:58:58.537Z,9.10
2023-04-08T14:03:15.937Z,9.40
2023-04-08T14:07:33.178Z,9.40
2023-04-08T14:11:50.642Z,9.20
2023-04-08T14:16:07.788Z,9.50
2023-04-08T14:20:24.845Z,9.60
2023-04-08T14:24:42.107Z,9.60
2023-04-08T14:28:59.447Z,9.50
2023-04-08T14:33:16.593Z,9.40
2023-04-08T14:37:34.365Z,9.40
2023-04-08T14:41:53.524Z,9.30
2023-04-08T14:46:10.879Z,9.40
2023-04-08T14:50:28.044Z,9.40
2023-04-08T14:54:46.838Z,9.30
2023-04-08T14:59:03.856Z,9.20
2023-04-08T15:03:21.179Z,9.10
2023-04-08T15:07:38.490Z,9.10
2023-04-08T15:11:56.363Z,9.10
2023-04-08T15:16:13.735Z,9.00
2023-04-08T15:20:31.024Z,8.90
2023-04-08T15:24:48.254Z,8.80
2023-04-08T15:29:05.632Z,8.80
2023-04-08T15:33:22.745Z,8.60
2023-04-08T15:37:39.868Z,8.60
2023-04-08T15:41:57.754Z,8.60
2023-04-08T15:46:19.109Z,8.40
2023-04-08T15:50:36.619Z,8.20
2023-04-08T15:54:54.078Z,8.30
2023-04-08T15:59:11.280Z,8.30
2023-04-08T16:03:28.521Z,8.20
2023-04-08T16:07:46.646Z,8.20
2023-04-08T16:12:03.803Z,8.30
2023-04-08T16:16:20.976Z,8.20
2023-04-08T16:20:38.849Z,8.40
2023-04-08T16:24:56.236Z,8.60
2023-04-08T16:29:13.317Z,8.70
2023-04-08T16:33:31.024Z,8.70
2023-04-08T16:37:48.271Z,8.60
2023-04-08T16:42:05.341Z,8.50
2023-04-08T16:46:23.010Z,8.40
2023-04-08T16:50:40.912Z,8.40
2023-04-08T16:54:58.825Z,8.10
2023-04-08T16:59:16.015Z,8.00
2023-04-08T17:03:34.498Z,8.00
2023-04-08T17:07:52.359Z,8.00
2023-04-08T17:12:09.584Z,7.90
2023-04-08T17:16:26.865Z,7.90
2023-04-08T17:20:44.508Z,7.90
2023-04-08T17:25:01.605Z,7.90
2023-04-08T17:29:18.764Z,7.80
2023-04-08T17:33:35.932Z,7.80
2023-04-08T17:37:53.160Z,7.70
2023-04-08T17:42:11.413Z,7.60
2023-04-08T17:46:28.705Z,7.50
2023-04-08T17:50:46.498Z,7.40
2023-04-08T17:55:03.956Z,7.40
2023-04-08T17:59:21.283Z,7.30
2023-04-08T18:03:38.564Z,7.20
2023-04-08T18:07:55.823Z,7.30
2023-04-08T18:12:13.066Z,7.30
2023-04-08T18:16:30.273Z,7.30
2023-04-08T18:20:47.494Z,7.30
2023-04-08T18:25:05.411Z,7.30
2023-04-08T18:29:22.508Z,7.10
2023-04-08T18:33:39.665Z,7.10
2023-04-08T18:37:56.811Z,7.20
2023-04-08T18:42:14.663Z,7.20
2023-04-08T18:46:32.501Z,7.20
2023-04-08T18:50:50.045Z,7.10
2023-04-08T18:55:07.580Z,7.20
2023-04-08T18:59:24.734Z,7.10
2023-04-08T19:03:43.488Z,7.10
2023-04-08T19:08:01.347Z,7.00
2023-04-08T19:12:18.495Z,7.00
2023-04-08T19:16:35.676Z,6.90
2023-04-08T19:20:53.013Z,6.80
2023-04-08T19:25:10.552Z,6.70
2023-04-08T19:29:29.712Z,6.50
2023-04-08T19:33:46.947Z,6.50
2023-04-08T19:38:04.239Z,6.50
2023-04-08T19:42:21.402Z,6.50
2023-04-08T19:46:38.832Z,6.40
2023-04-08T19:50:56.229Z,6.30
2023-04-08T19:55:13.456Z,6.20
2023-04-08T19:59:30.589Z,5.90
2023-04-08T20:03:52.207Z,5.60
2023-04-08T20:08:09.578Z,5.40
2023-04-08T20:12:28.155Z,5.20
2023-04-08T20:16:45.487Z,5.00
2023-04-08T20:21:02.684Z,4.90
2023-04-08T20:25:19.904Z,4.70
2023-04-08T20:29:37.018Z,4.60
2023-04-08T20:33:54.306Z,4.50
2023-04-08T20:38:11.434Z,4.40
2023-04-08T20:42:28.759Z,4.30
2023-04-08T20:46:47.441Z,4.30
2023-04-08T20:51:05.991Z,4.10
2023-04-08T20:55:23.197Z,3.80
2023-04-08T20:59:40.613Z,3.60
2023-04-08T21:03:57.917Z,3.40
2023-04-08T21:08:14.996Z,3.10
2023-04-08T21:12:32.091Z,2.90
2023-04-08T21:16:49.305Z,2.90
2023-04-08T21:21:06.474Z,2.80
2023-04-08T21:25:24.790Z,2.60
2023-04-08T21:29:41.891Z,2.50
2023-04-08T21:33:59.180Z,2.60
2023-04-08T21:38:16.598Z,2.40
2023-04-08T21:42:33.751Z,2.20
2023-04-08T21:46:50.930Z,2.20
2023-04-08T21:51:08.468Z,2.00
2023-04-08T21:55:25.747Z,2.00
2023-04-08T21:59:42.830Z,1.80
2023-04-08T22:04:00.553Z,1.70
2023-04-08T22:08:17.922Z,1.60
2023-04-08T22:12:35.444Z,1.60
2023-04-08T22:16:53.242Z,1.60
2023-04-08T22:21:10.472Z,1.50
2023-04-08T22:25:27.649Z,1.40
2023-04-08T22:29:44.790Z,1.40
2023-04-08T22:34:01.953Z,1.30
2023-04-08T22:38:19.252Z,1.30
2023-04-08T22:42:36.678Z,1.30
2023-04-08T22:46:53.805Z,1.20
2023-04-08T22:51:11.314Z,1.20
2023-04-08T22:55:28.460Z,1.10
2023-04-08T22:59:45.548Z,1.00
2023-04-08T23:04:02.799Z,1.00
2023-04-08T23:08:20.014Z,1.00
2023-04-08T23:12:37.317Z,1.00
2023-04-08T23:16:54.399Z,0.90
2023-04-08T23:21:11.490Z,0.80
2023-04-08T23:25:28.633Z,0.90
2023-04-08T23:29:45.698Z,0.80
2023-04-08T23:34:03.004Z,0.80
2023-04-08T23:38:20.460Z,0.80
2023-04-08T23:42:37.593Z,0.80
2023-04-08T23:46:54.842Z,0.70
2023-04-08T23:51:11.954Z,0.70
2023-04-08T23:55:29.044Z,0.60
2023-04-08T23:59:47.164Z,0.60
